Time;durP1;ratioP1;P1;durP2;ratioP2;P2;SDS_P1;SDS_P2;PMS_P1;PMS_P2;Temp;Humidity;BMP_temperature;BMP_pressure;BME280_temperature;BME280_humidity;BME280_pressure;Samples;Min_cycle;Max_cycle;Signal;HPM_P1;HPM_P2
2024/01/25 00:00:50;;;;;;;;;;;;;;;17.77;64.42;99772.06;2092790;28;19964;-70
2024/01/25 00:01:51;;;;;;;;;;;;;;;17.76;64.50;99773.09;2090369;28;19928;-69
2024/01/25 00:02:52;;;;;;;;;;;;;;;17.77;64.47;99769.38;2090074;28;19935;-69
2024/01/25 00:03:53;;;;;;;;;;;;;;;17.77;64.77;99766.69;2087779;28;20015;-70
2024/01/25 00:04:54;;;;;;;;;;;;;;;17.76;64.45;99765.88;2091559;28;19956;-68
2024/01/25 00:05:55;;;;;;;;;;;;;;;17.75;64.91;99769.56;2088459;28;20078;-70
2024/01/25 00:06:56;;;;;;;;;;;;;;;17.74;64.96;99772.41;2087218;28;20881;-70
2024/01/25 00:07:58;;;;;;;;;;;;;;;17.74;64.97;99764.34;2087684;28;20415;-70
2024/01/25 00:08:58;;;;;;;;;;;;;;;17.73;65.15;99754.66;2088529;28;20415;-70
2024/01/25 00:10:00;;;;;;;;;;;;;;;17.74;64.77;99761.69;2085110;28;19972;-69
2024/01/25 00:11:01;;;;;;;;;;;;;;;17.75;64.83;99769.56;2091895;28;19937;-70
2024/01/25 00:12:03;;;;;;;;;;;;;;;17.75;64.91;99763.38;2088505;28;19996;-70
2024/01/25 00:13:04;;;;;;;;;;;;;;;17.74;65.02;99764.34;2087798;28;19928;-70
2024/01/25 00:14:05;;;;;;;;;;;;;;;17.73;65.07;99762.69;2086682;28;20011;-69
2024/01/25 00:15:08;;;;;;;;;;;;;;;17.72;65.13;99766.38;2087079;28;19929;-70
2024/01/25 00:16:08;;;;;;;;;;;;;;;17.72;65.13;99763.69;2089981;28;19943;-70
2024/01/25 00:17:10;;;;;;;;;;;;;;;17.73;65.04;99768.06;2091173;28;19982;-70
2024/01/25 00:18:10;;;;;;;;;;;;;;;17.72;65.41;99763.69;2090621;28;19928;-70
2024/01/25 00:19:12;;;;;;;;;;;;;;;17.72;65.08;99771.72;2087189;28;20256;-70
2024/01/25 00:20:13;;;;;;;;;;;;;;;17.71;65.09;99767.38;2090062;28;19928;-70
2024/01/25 00:21:14;;;;;;;;;;;;;;;17.71;65.05;99762.03;2087451;28;19968;-71
2024/01/25 00:22:15;;;;;;;;;;;;;;;17.70;65.50;99761.19;2088009;28;19928;-70
2024/01/25 00:23:16;;;;;;;;;;;;;;;17.70;65.58;99765.72;2087844;28;20419;-69
2024/01/25 00:24:18;;;;;;;;;;;;;;;17.70;65.50;99765.72;2083683;28;20542;-71
2024/01/25 00:25:18;;;;;;;;;;;;;;;17.69;65.56;99761.34;2089594;28;20586;-69
2024/01/25 00:26:20;;;;;;;;;;;;;;;17.68;65.35;99762.38;2087206;28;19983;-70
2024/01/25 00:27:20;;;;;;;;;;;;;;;17.69;65.43;99758.66;2089270;28;19954;-70
2024/01/25 00:28:22;;;;;;;;;;;;;;;17.66;65.55;99765.19;2089130;28;19954;-70
2024/01/25 00:29:23;;;;;;;;;;;;;;;17.65;65.42;99763.53;2091959;28;19932;-69
2024/01/25 00:30:26;;;;;;;;;;;;;;;17.64;65.78;99759.19;2086889;28;20035;-70
2024/01/25 00:31:27;;;;;;;;;;;;;;;17.65;66.00;99760.84;2088665;28;20331;-72
2024/01/25 00:32:28;;;;;;;;;;;;;;;17.65;65.47;99759.00;2087483;28;19925;-71
2024/01/25 00:33:29;;;;;;;;;;;;;;;17.64;65.52;99754.66;2088409;28;19939;-71
2024/01/25 00:34:30;;;;;;;;;;;;;;;17.63;66.03;99750.31;2087764;28;19959;-71
2024/01/25 00:35:32;;;;;;;;;;;;;;;17.63;65.78;99749.44;2088384;28;20309;-70
2024/01/25 00:36:33;;;;;;;;;;;;;;;17.65;65.42;99752.81;2088966;28;20322;-71
2024/01/25 00:37:35;;;;;;;;;;;;;;;17.63;65.59;99753.00;2086946;28;20157;-70
2024/01/25 00:38:35;;;;;;;;;;;;;;;17.61;65.69;99746.94;2089193;28;19928;-72
2024/01/25 00:39:37;;;;;;;;;;;;;;;17.61;65.78;99746.94;2089605;28;19999;-72
2024/01/25 00:40:38;;;;;;;;;;;;;;;17.62;65.76;99750.47;2085702;28;19925;-72
2024/01/25 00:41:41;;;;;;;;;;;;;;;17.62;65.89;99747.78;2088763;28;20541;-72
2024/01/25 00:42:42;;;;;;;;;;;;;;;17.62;65.78;99747.78;2087277;28;19925;-70
2024/01/25 00:43:43;;;;;;;;;;;;;;;17.62;65.77;99747.78;2088933;28;19936;-70
2024/01/25 00:44:45;;;;;;;;;;;;;;;17.63;65.68;99744.09;2088419;28;20406;-70
2024/01/25 00:45:47;;;;;;;;;;;;;;;17.64;65.49;99749.28;2088721;28;20439;-71
2024/01/25 00:46:52;;;;;;;;;;;;;;;17.62;65.76;99747.78;2088262;28;19932;-71
2024/01/25 00:47:53;;;;;;;;;;;;;;;17.60;65.74;99747.94;2086398;28;20449;-70
2024/01/25 00:48:55;;;;;;;;;;;;;;;17.58;66.07;99751.81;2089923;28;19956;-71
2024/01/25 00:49:56;;;;;;;;;;;;;;;17.61;65.55;99748.81;2086391;28;19932;-70
2024/01/25 00:50:58;;;;;;;;;;;;;;;17.59;65.86;99751.66;2087754;28;20041;-71
2024/01/25 00:51:59;;;;;;;;;;;;;;;17.61;65.95;99749.63;2089134;28;19933;-71
2024/01/25 00:53:00;;;;;;;;;;;;;;;17.61;65.89;99746.13;2090891;28;19935;-71
2024/01/25 00:54:02;;;;;;;;;;;;;;;17.60;65.83;99750.63;2089321;28;19928;-70
2024/01/25 00:55:03;;;;;;;;;;;;;;;17.62;65.59;99753.16;2088291;28;19929;-70
2024/01/25 00:56:04;;;;;;;;;;;;;;;17.61;65.53;99744.28;2090445;28;19933;-70
2024/01/25 00:57:06;;;;;;;;;;;;;;;17.61;65.66;99751.47;2088537;28;19929;-71
2024/01/25 00:58:07;;;;;;;;;;;;;;;17.59;65.74;99750.81;2087025;28;20240;-71
2024/01/25 00:59:11;;;;;;;;;;;;;;;17.60;65.93;99752.47;2088624;28;20387;-70
2024/01/25 01:00:12;;;;;;;;;;;;;;;17.58;65.87;99747.28;2085596;28;19962;-70
2024/01/25 01:01:14;;;;;;;;;;;;;;;17.60;65.77;99756.00;2091251;28;20375;-70
2024/01/25 01:02:16;;;;;;;;;;;;;;;17.58;65.97;99749.97;2088382;28;19940;-70
2024/01/25 01:03:18;;;;;;;;;;;;;;;17.59;66.11;99748.13;2089747;28;20468;-70
2024/01/25 01:04:19;;;;;;;;;;;;;;;17.56;66.18;99743.94;2086590;28;20011;-71
2024/01/25 01:05:21;;;;;;;;;;;;;;;17.56;65.92;99743.09;2089174;28;19959;-70
2024/01/25 01:06:21;;;;;;;;;;;;;;;17.55;66.01;99746.78;2085703;28;19929;-70
2024/01/25 01:07:23;;;;;;;;;;;;;;;17.55;66.12;99747.63;2089720;28;20278;-70
2024/01/25 01:08:25;;;;;;;;;;;;;;;17.54;66.06;99743.25;2087180;28;19936;-67
2024/01/25 01:09:26;;;;;;;;;;;;;;;17.53;66.26;99746.97;2091264;28;19974;-70
2024/01/25 01:10:27;;;;;;;;;;;;;;;17.52;66.15;99742.59;2087357;28;20431;-70
2024/01/25 01:11:27;;;;;;;;;;;;;;;17.52;66.26;99739.91;2089811;28;19958;-70
2024/01/25 01:12:29;;;;;;;;;;;;;;;17.55;66.15;99744.97;2087762;28;20494;-71
2024/01/25 01:13:30;;;;;;;;;;;;;;;17.55;66.36;99747.63;2087633;28;19933;-71
2024/01/25 01:14:31;;;;;;;;;;;;;;;17.54;66.05;99750.47;2089285;28;20030;-72
2024/01/25 01:15:32;;;;;;;;;;;;;;;17.56;66.19;99753.84;2088639;28;19935;-70
2024/01/25 01:16:35;;;;;;;;;;;;;;;17.55;66.11;99753.00;2085741;28;19999;-70
2024/01/25 01:17:36;;;;;;;;;;;;;;;17.54;66.25;99751.31;2090257;28;19929;-70
2024/01/25 01:18:39;;;;;;;;;;;;;;;17.54;66.16;99743.25;2087590;28;19939;-73
2024/01/25 01:19:39;;;;;;;;;;;;;;;17.51;66.49;99746.28;2085970;28;20019;-73
2024/01/25 01:20:40;;;;;;;;;;;;;;;17.50;66.31;99741.94;2089028;28;20316;-70
2024/01/25 01:21:43;;;;;;;;;;;;;;;17.50;66.30;99736.56;2088465;28;20521;-71
2024/01/25 01:22:44;;;;;;;;;;;;;;;17.50;66.38;99733.88;2087721;28;20035;-70
2024/01/25 01:23:44;;;;;;;;;;;;;;;17.50;66.21;99733.06;2087075;28;20357;-70
2024/01/25 01:24:46;;;;;;;;;;;;;;;17.47;66.46;99726.19;2087985;28;19928;-71
2024/01/25 01:25:47;;;;;;;;;;;;;;;17.49;66.21;99728.69;2089287;28;19940;-70
2024/01/25 01:26:48;;;;;;;;;;;;;;;17.48;66.50;99735.06;2088154;28;19980;-71
2024/01/25 01:27:49;;;;;;;;;;;;;;;17.49;66.22;99734.06;2088465;28;19968;-70
2024/01/25 01:28:51;;;;;;;;;;;;;;;17.46;66.34;99729.84;2088050;28;20659;-71
2024/01/25 01:29:51;;;;;;;;;;;;;;;17.46;66.47;99732.53;2086743;28;21811;-71
2024/01/25 01:30:53;;;;;;;;;;;;;;;17.49;66.49;99728.69;2088156;28;19976;-71
2024/01/25 01:31:55;;;;;;;;;;;;;;;17.47;66.67;99731.56;2089725;28;20661;-71
2024/01/25 01:32:56;;;;;;;;;;;;;;;17.49;66.38;99734.06;2089351;28;19958;-71
2024/01/25 01:33:57;;;;;;;;;;;;;;;17.49;66.32;99734.88;2090063;28;19935;-71
2024/01/25 01:34:59;;;;;;;;;;;;;;;17.46;66.44;99743.28;2088812;28;19964;-71
2024/01/25 01:36:00;;;;;;;;;;;;;;;17.46;66.42;99731.72;2086695;28;19941;-71
2024/01/25 01:37:01;;;;;;;;;;;;;;;17.44;66.34;99729.22;2086081;28;20013;-71
2024/01/25 01:38:02;;;;;;;;;;;;;;;17.43;66.53;99716.78;2088978;28;19932;-71
2024/01/25 01:39:03;;;;;;;;;;;;;;;17.42;66.55;99723.16;2087035;28;19929;-71
2024/01/25 01:40:05;;;;;;;;;;;;;;;17.42;66.69;99724.00;2086815;28;19929;-71
2024/01/25 01:41:05;;;;;;;;;;;;;;;17.39;66.64;99720.84;2089656;28;20404;-71
2024/01/25 01:42:07;;;;;;;;;;;;;;;17.38;66.74;99728.03;2088292;28;19932;-71
2024/01/25 01:43:17;;;;;;;;;;;;;;;17.38;66.80;99736.09;2087288;28;19928;-70
2024/01/25 01:44:19;;;;;;;;;;;;;;;17.40;66.69;99725.19;2088231;28;19975;-70
2024/01/25 01:45:19;;;;;;;;;;;;;;;17.39;66.37;99731.56;2090083;28;20411;-70
2024/01/25 01:46:27;;;;;;;;;;;;;;;17.37;66.56;99733.56;2090760;28;19932;-69
2024/01/25 01:47:29;;;;;;;;;;;;;;;17.38;66.82;99721.81;2086652;28;19929;-70
2024/01/25 01:48:31;;;;;;;;;;;;;;;17.37;66.89;99723.66;2086299;28;19967;-70
2024/01/25 01:49:31;;;;;;;;;;;;;;;17.37;66.67;99729.03;2088244;28;19936;-70
2024/01/25 01:50:33;;;;;;;;;;;;;;;17.37;66.82;99722.84;2086626;28;20598;-69
2024/01/25 01:51:34;;;;;;;;;;;;;;;17.36;66.54;99729.22;2087533;28;19929;-70
2024/01/25 01:52:35;;;;;;;;;;;;;;;17.36;66.82;99721.16;2088623;28;19959;-69
2024/01/25 01:53:36;;;;;;;;;;;;;;;17.36;66.74;99718.50;2086448;28;19936;-70
2024/01/25 01:54:38;;;;;;;;;;;;;;;17.37;66.54;99734.41;2088406;28;20023;-69
2024/01/25 01:55:40;;;;;;;;;;;;;;;17.35;66.63;99730.19;2086470;28;20299;-70
2024/01/25 01:56:41;;;;;;;;;;;;;;;17.33;66.67;99727.72;2090376;28;19967;-70
2024/01/25 01:57:42;;;;;;;;;;;;;;;17.31;66.66;99710.09;2086780;28;19939;-70
2024/01/25 01:58:44;;;;;;;;;;;;;;;17.29;66.72;99710.25;2088094;28;20027;-71
2024/01/25 01:59:45;;;;;;;;;;;;;;;17.31;66.56;99710.09;2087650;28;19924;-70
2024/01/25 02:00:49;;;;;;;;;;;;;;;17.32;66.71;99707.25;2088445;28;20356;-70
2024/01/25 02:01:50;;;;;;;;;;;;;;;17.31;66.62;99708.25;2088565;28;19925;-70
2024/01/25 02:02:53;;;;;;;;;;;;;;;17.30;66.88;99701.25;2082139;28;19929;-71
2024/01/25 02:03:54;;;;;;;;;;;;;;;17.29;66.73;99707.59;2085795;28;19928;-70
2024/01/25 02:04:55;;;;;;;;;;;;;;;17.30;66.61;99708.41;2087384;28;20474;-71
2024/01/25 02:06:02;;;;;;;;;;;;;;;17.28;66.88;99707.78;2088565;28;19939;-70
2024/01/25 02:07:03;;;;;;;;;;;;;;;17.27;66.71;99698.03;2084256;28;19955;-70
2024/01/25 02:08:04;;;;;;;;;;;;;;;17.28;67.05;99697.03;2086266;28;19929;-71
2024/01/25 02:09:06;;;;;;;;;;;;;;;17.28;67.05;99702.41;2085390;28;19928;-70
2024/01/25 02:10:07;;;;;;;;;;;;;;;17.28;66.64;99699.72;2086400;28;20423;-71
2024/01/25 02:11:11;;;;;;;;;;;;;;;17.26;66.79;99696.38;2086604;28;20011;-69
2024/01/25 02:12:16;;;;;;;;;;;;;;;17.27;66.65;99695.34;2086931;28;19933;-70
2024/01/25 02:13:17;;;;;;;;;;;;;;;17.25;66.71;99702.75;2086832;28;20291;-69
2024/01/25 02:14:18;;;;;;;;;;;;;;;17.25;67.05;99700.91;2087306;28;20260;-71
2024/01/25 02:15:19;;;;;;;;;;;;;;;17.24;66.77;99693.84;2086245;28;19932;-71
2024/01/25 02:16:21;;;;;;;;;;;;;;;17.25;66.94;99690.19;2088700;28;19928;-70
2024/01/25 02:17:21;;;;;;;;;;;;;;;17.27;66.50;99681.94;2088816;28;19944;-70
2024/01/25 02:18:25;;;;;;;;;;;;;;;17.27;66.91;99690.81;2089529;28;20456;-70
2024/01/25 02:19:25;;;;;;;;;;;;;;;17.26;66.66;99689.16;2084830;28;19933;-69
2024/01/25 02:20:27;;;;;;;;;;;;;;;17.25;66.86;99694.72;2088530;28;20031;-70
2024/01/25 02:21:27;;;;;;;;;;;;;;;17.22;66.88;99690.50;2089134;28;19964;-70
2024/01/25 02:22:30;;;;;;;;;;;;;;;17.22;66.95;99686.97;2087805;28;20542;-70
2024/01/25 02:23:31;;;;;;;;;;;;;;;17.22;67.16;99692.34;2087943;28;19932;-70
2024/01/25 02:24:32;;;;;;;;;;;;;;;17.23;67.06;99694.84;2089326;28;20035;-69
2024/01/25 02:25:43;;;;;;;;;;;;;;;17.23;67.06;99688.66;2102552;27;20595;-70
2024/01/25 02:26:44;;;;;;;;;;;;;;;17.22;66.81;99687.84;2085749;28;19940;-69
2024/01/25 02:27:45;;;;;;;;;;;;;;;17.22;66.70;99681.59;2087556;28;20398;-70
2024/01/25 02:28:46;;;;;;;;;;;;;;;17.20;66.92;99684.47;2086986;28;19997;-70
2024/01/25 02:29:48;;;;;;;;;;;;;;;17.18;66.93;99675.75;2082771;28;19964;-71
2024/01/25 02:30:48;;;;;;;;;;;;;;;17.18;67.13;99675.75;2082011;28;19929;-70
2024/01/25 02:31:50;;;;;;;;;;;;;;;17.19;67.00;99680.13;2086976;28;19932;-72
2024/01/25 02:32:50;;;;;;;;;;;;;;;17.18;67.26;99673.06;2088325;28;19925;-72
2024/01/25 02:33:52;;;;;;;;;;;;;;;17.18;67.14;99676.59;2086219;28;19954;-72
2024/01/25 02:34:53;;;;;;;;;;;;;;;17.16;67.13;99675.09;2088019;28;19979;-72
2024/01/25 02:35:54;;;;;;;;;;;;;;;17.15;67.44;99665.38;2089315;28;20010;-71
2024/01/25 02:36:55;;;;;;;;;;;;;;;17.18;67.09;99673.91;2090175;28;19929;-72
2024/01/25 02:37:56;;;;;;;;;;;;;;;17.20;67.05;99666.53;2087333;28;19947;-73
2024/01/25 02:38:57;;;;;;;;;;;;;;;17.18;66.86;99665.88;2083998;28;19936;-71
2024/01/25 02:39:59;;;;;;;;;;;;;;;17.16;67.08;99665.22;2087750;28;20293;-72
2024/01/25 02:41:01;;;;;;;;;;;;;;;17.16;66.81;99661.69;2084528;28;20409;-71
2024/01/25 02:42:02;;;;;;;;;;;;;;;17.13;66.88;99664.69;2085293;28;19958;-70
2024/01/25 02:43:03;;;;;;;;;;;;;;;17.13;66.97;99668.25;2087150;28;19933;-73
2024/01/25 02:44:04;;;;;;;;;;;;;;;17.13;66.99;99665.56;2086262;28;19968;-72
2024/01/25 02:45:06;;;;;;;;;;;;;;;17.14;67.05;99672.59;2087220;28;20015;-72
2024/01/25 02:46:07;;;;;;;;;;;;;;;17.14;67.23;99672.59;2079330;28;20354;-70
2024/01/25 02:47:08;;;;;;;;;;;;;;;17.14;66.97;99672.59;2088083;28;20842;-69
2024/01/25 02:48:09;;;;;;;;;;;;;;;17.12;66.73;99671.91;2085190;28;19932;-69
2024/01/25 02:49:10;;;;;;;;;;;;;;;17.11;67.10;99669.41;2086137;28;20487;-69
2024/01/25 02:50:11;;;;;;;;;;;;;;;17.09;67.02;99669.56;2085832;28;19983;-69
2024/01/25 02:51:12;;;;;;;;;;;;;;;17.09;66.94;99669.56;2088148;28;19940;-69
2024/01/25 02:52:14;;;;;;;;;;;;;;;17.10;67.06;99671.22;2087379;28;20327;-69
2024/01/25 02:53:14;;;;;;;;;;;;;;;17.11;66.92;99666.72;2084285;28;19932;-70
2024/01/25 02:54:16;;;;;;;;;;;;;;;17.12;67.16;99665.72;2083126;28;20055;-69
2024/01/25 02:55:18;;;;;;;;;;;;;;;17.13;67.13;99662.88;2087406;28;20004;-69
2024/01/25 02:56:21;;;;;;;;;;;;;;;17.13;67.08;99665.56;2084538;28;21261;-69
2024/01/25 02:57:21;;;;;;;;;;;;;;;17.11;67.04;99658.69;2084645;28;19955;-70
2024/01/25 02:58:23;;;;;;;;;;;;;;;17.10;67.03;99663.19;2087246;28;20027;-70
2024/01/25 02:59:24;;;;;;;;;;;;;;;17.11;66.84;99664.88;2083595;28;19925;-70
2024/01/25 03:00:25;;;;;;;;;;;;;;;17.12;66.74;99661.19;2085625;28;21055;-69
2024/01/25 03:01:26;;;;;;;;;;;;;;;17.12;67.01;99663.03;2083945;28;19932;-69
2024/01/25 03:02:27;;;;;;;;;;;;;;;17.11;66.81;99672.09;2084576;28;20059;-69
2024/01/25 03:03:28;;;;;;;;;;;;;;;17.09;66.75;99671.41;2085512;28;19933;-70
2024/01/25 03:04:29;;;;;;;;;;;;;;;17.08;66.97;99677.78;2085361;28;20402;-70
2024/01/25 03:05:30;;;;;;;;;;;;;;;17.09;67.06;99664.22;2083948;28;19935;-70
2024/01/25 03:06:32;;;;;;;;;;;;;;;17.08;66.96;99670.59;2084420;28;20024;-69
2024/01/25 03:07:32;;;;;;;;;;;;;;;17.06;67.19;99664.53;2085150;28;19936;-70
2024/01/25 03:08:34;;;;;;;;;;;;;;;17.05;67.19;99664.69;2088071;28;19931;-70
2024/01/25 03:09:34;;;;;;;;;;;;;;;17.04;67.38;99660.34;2083669;28;19925;-70
2024/01/25 03:10:35;;;;;;;;;;;;;;;17.04;67.12;99657.69;2083323;28;19967;-70
2024/01/25 03:11:38;;;;;;;;;;;;;;;17.05;67.02;99659.34;2080453;28;19976;-69
2024/01/25 03:12:39;;;;;;;;;;;;;;;17.04;67.25;99645.09;2084792;28;19935;-69
2024/01/25 03:13:40;;;;;;;;;;;;;;;17.03;67.06;99643.44;2084572;28;20380;-70
2024/01/25 03:14:41;;;;;;;;;;;;;;;17.04;67.20;99636.22;2084250;28;19929;-70
2024/01/25 03:15:42;;;;;;;;;;;;;;;17.02;67.15;99647.16;2082297;28;20743;-70
2024/01/25 03:16:43;;;;;;;;;;;;;;;17.03;67.35;99643.44;2082142;28;20483;-69
2024/01/25 03:17:45;;;;;;;;;;;;;;;17.02;67.27;99647.16;2078898;28;19939;-69
2024/01/25 03:18:46;;;;;;;;;;;;;;;17.03;67.16;99642.63;2082237;28;19929;-69
2024/01/25 03:19:48;;;;;;;;;;;;;;;17.02;67.23;99640.91;2083048;28;20024;-69
2024/01/25 03:20:50;;;;;;;;;;;;;;;17.02;67.10;99647.16;2081874;28;20343;-69
2024/01/25 03:21:52;;;;;;;;;;;;;;;17.03;67.11;99642.63;2084868;28;19925;-70
2024/01/25 03:22:54;;;;;;;;;;;;;;;17.02;67.13;99636.41;2082572;28;19929;-70
2024/01/25 03:23:54;;;;;;;;;;;;;;;17.01;67.09;99639.25;2084964;28;19999;-70
2024/01/25 03:24:56;;;;;;;;;;;;;;;17.01;67.00;99641.94;2087355;28;19986;-69
2024/01/25 03:25:57;;;;;;;;;;;;;;;16.99;67.13;99642.09;2082891;28;19929;-70
2024/01/25 03:27:00;;;;;;;;;;;;;;;17.00;67.12;99642.94;2086614;28;20486;-69
2024/01/25 03:28:00;;;;;;;;;;;;;;;16.98;67.12;99643.09;2084878;28;19948;-69
2024/01/25 03:29:02;;;;;;;;;;;;;;;17.00;67.16;99642.94;2084093;28;20023;-70
2024/01/25 03:30:05;;;;;;;;;;;;;;;16.97;67.13;99644.13;2082985;28;19928;-70
2024/01/25 03:31:06;;;;;;;;;;;;;;;16.97;67.12;99646.81;2081227;28;19932;-69
2024/01/25 03:32:07;;;;;;;;;;;;;;;16.95;67.26;99646.97;2082207;28;19932;-70
2024/01/25 03:33:09;;;;;;;;;;;;;;;16.97;67.21;99653.00;2083353;28;20039;-70
2024/01/25 03:34:09;;;;;;;;;;;;;;;16.97;67.22;99652.16;2085447;28;20516;-70
2024/01/25 03:35:11;;;;;;;;;;;;;;;16.96;67.04;99653.16;2083001;28;20040;-70
2024/01/25 03:36:13;;;;;;;;;;;;;;;16.96;66.94;99655.81;2087391;28;19925;-70
2024/01/25 03:37:15;;;;;;;;;;;;;;;16.94;66.93;99647.16;2078060;28;20310;-70
2024/01/25 03:38:16;;;;;;;;;;;;;;;16.95;66.94;99648.81;2080964;28;19962;-70
2024/01/25 03:39:18;;;;;;;;;;;;;;;16.93;66.97;99645.44;2077692;28;20571;-70
2024/01/25 03:40:19;;;;;;;;;;;;;;;16.92;67.12;99638.44;2079283;28;19962;-70
2024/01/25 03:41:22;;;;;;;;;;;;;;;16.94;67.20;99649.81;2079993;28;20024;-70
2024/01/25 03:42:24;;;;;;;;;;;;;;;16.94;66.88;99647.16;2077360;28;19936;-70
2024/01/25 03:43:26;;;;;;;;;;;;;;;16.94;67.15;99645.28;2077231;28;19929;-70
2024/01/25 03:44:26;;;;;;;;;;;;;;;16.92;67.01;99652.66;2077465;28;19929;-70
2024/01/25 03:45:27;;;;;;;;;;;;;;;16.92;66.89;99649.16;2075107;28;20059;-71
2024/01/25 03:46:29;;;;;;;;;;;;;;;16.91;67.04;99645.63;2078928;28;20477;-71
2024/01/25 03:47:30;;;;;;;;;;;;;;;16.91;67.21;99653.69;2078556;28;19933;-70
2024/01/25 03:48:30;;;;;;;;;;;;;;;16.91;67.10;99653.69;2081793;28;19968;-69
2024/01/25 03:49:32;;;;;;;;;;;;;;;16.90;67.15;99654.66;2076419;28;20067;-70
2024/01/25 03:50:33;;;;;;;;;;;;;;;16.90;67.02;99656.50;2078755;28;19935;-70
2024/01/25 03:51:34;;;;;;;;;;;;;;;16.89;67.13;99660.19;2076557;28;20702;-69
2024/01/25 03:52:35;;;;;;;;;;;;;;;16.89;67.11;99654.84;2078521;28;19932;-70
2024/01/25 03:53:35;;;;;;;;;;;;;;;16.89;67.19;99654.84;2078143;28;20031;-70
2024/01/25 03:54:37;;;;;;;;;;;;;;;16.90;67.18;99659.19;2077575;28;20063;-69
2024/01/25 03:55:37;;;;;;;;;;;;;;;16.93;67.08;99656.16;2079760;28;19929;-69
2024/01/25 03:56:39;;;;;;;;;;;;;;;16.90;67.14;99657.34;2076781;28;20023;-70
2024/01/25 03:57:42;;;;;;;;;;;;;;;16.90;67.10;99649.31;2075807;28;19929;-69
2024/01/25 03:58:43;;;;;;;;;;;;;;;16.89;67.31;99654.84;2079554;28;19964;-70
2024/01/25 03:59:44;;;;;;;;;;;;;;;16.88;67.26;99654.00;2078400;28;19933;-70
2024/01/25 04:00:45;;;;;;;;;;;;;;;16.89;67.04;99660.19;2075458;28;20057;-71
2024/01/25 04:01:47;;;;;;;;;;;;;;;16.87;67.18;99659.53;2079709;28;19940;-70
2024/01/25 04:02:47;;;;;;;;;;;;;;;16.89;67.43;99657.53;2080586;28;19928;-70
2024/01/25 04:03:49;;;;;;;;;;;;;;;16.87;67.14;99659.53;2077125;28;19929;-71
2024/01/25 04:04:49;;;;;;;;;;;;;;;16.89;67.48;99657.53;2077254;28;19933;-69
2024/01/25 04:05:51;;;;;;;;;;;;;;;16.87;67.54;99662.19;2076197;28;20499;-69
2024/01/25 04:06:52;;;;;;;;;;;;;;;16.87;67.39;99663.03;2077521;28;19929;-70
2024/01/25 04:07:53;;;;;;;;;;;;;;;16.86;67.08;99657.84;2078320;28;19928;-70
2024/01/25 04:08:54;;;;;;;;;;;;;;;16.87;67.19;99659.53;2079866;28;19929;-71
2024/01/25 04:09:55;;;;;;;;;;;;;;;16.87;67.28;99662.19;2077831;28;20404;-69
2024/01/25 04:10:57;;;;;;;;;;;;;;;16.86;67.26;99661.38;2080526;28;20016;-70
2024/01/25 04:11:57;;;;;;;;;;;;;;;16.84;67.25;99659.88;2079841;28;19935;-68
2024/01/25 04:13:01;;;;;;;;;;;;;;;16.83;67.26;99663.56;2077649;28;19961;-69
2024/01/25 04:14:02;;;;;;;;;;;;;;;16.80;67.31;99662.03;2080433;28;19940;-70
2024/01/25 04:15:04;;;;;;;;;;;;;;;16.81;67.02;99653.00;2079294;28;20110;-69
2024/01/25 04:16:05;;;;;;;;;;;;;;;16.83;67.30;99651.00;2070000;28;19933;-69
2024/01/25 04:17:06;;;;;;;;;;;;;;;16.82;67.09;99645.78;2075703;28;19968;-70
2024/01/25 04:18:07;;;;;;;;;;;;;;;16.81;67.05;99649.47;2080397;28;19935;-70
2024/01/25 04:19:12;;;;;;;;;;;;;;;16.82;67.16;99645.78;2075906;28;19972;-70
2024/01/25 04:20:12;;;;;;;;;;;;;;;16.83;67.26;99639.44;2080588;28;19961;-70
2024/01/25 04:21:14;;;;;;;;;;;;;;;16.85;67.27;99646.28;2077312;28;20005;-70
2024/01/25 04:22:15;;;;;;;;;;;;;;;16.88;67.30;99642.44;2077733;28;19930;-70
2024/01/25 04:23:16;;;;;;;;;;;;;;;16.92;67.23;99646.47;2080447;28;19961;-70
2024/01/25 04:24:17;;;;;;;;;;;;;;;16.94;67.25;99647.97;2075726;28;20012;-69
2024/01/25 04:25:19;;;;;;;;;;;;;;;16.99;67.00;99650.13;2077814;28;19936;-69
2024/01/25 04:26:19;;;;;;;;;;;;;;;17.04;67.09;99641.59;2080215;28;20009;-70
2024/01/25 04:27:20;;;;;;;;;;;;;;;17.08;67.07;99646.47;2078760;28;19932;-69
2024/01/25 04:28:23;;;;;;;;;;;;;;;17.12;66.75;99644.28;2081173;28;19928;-70
2024/01/25 04:29:23;;;;;;;;;;;;;;;17.18;66.75;99646.25;2078353;28;19925;-69
2024/01/25 04:30:24;;;;;;;;;;;;;;;17.22;66.88;99644.94;2079679;28;20027;-69
2024/01/25 04:31:25;;;;;;;;;;;;;;;17.27;66.65;99641.72;2077847;28;19937;-69
2024/01/25 04:32:26;;;;;;;;;;;;;;;17.31;66.39;99646.59;2078072;28;20471;-70
2024/01/25 04:33:28;;;;;;;;;;;;;;;17.34;66.81;99642.72;2079757;28;19968;-71
2024/01/25 04:34:28;;;;;;;;;;;;;;;17.37;66.64;99642.38;2077096;28;19933;-71
2024/01/25 04:35:31;;;;;;;;;;;;;;;17.39;66.68;99635.84;2080153;28;19976;-70
2024/01/25 04:36:33;;;;;;;;;;;;;;;17.43;66.67;99644.38;2082955;28;20621;-71
2024/01/25 04:37:33;;;;;;;;;;;;;;;17.45;66.57;99637.00;2078149;28;19925;-70
2024/01/25 04:38:34;;;;;;;;;;;;;;;17.48;66.56;99639.34;2078594;28;19932;-72
2024/01/25 04:39:36;;;;;;;;;;;;;;;17.51;66.48;99640.84;2077616;28;21155;-71
2024/01/25 04:40:36;;;;;;;;;;;;;;;17.55;66.57;99650.22;2080572;28;19969;-70
2024/01/25 04:41:38;;;;;;;;;;;;;;;17.57;66.56;99648.19;2078238;28;19969;-71
2024/01/25 04:42:38;;;;;;;;;;;;;;;17.59;66.60;99641.66;2080848;28;19948;-71
2024/01/25 04:43:41;;;;;;;;;;;;;;;17.62;66.31;99644.00;2079725;28;20340;-71
2024/01/25 04:44:42;;;;;;;;;;;;;;;17.64;66.26;99647.34;2078969;28;20574;-70
2024/01/25 04:45:43;;;;;;;;;;;;;;;17.65;66.32;99638.28;2083037;28;19925;-71
2024/01/25 04:46:44;;;;;;;;;;;;;;;17.69;66.20;99638.78;2079561;28;19940;-70
2024/01/25 04:47:46;;;;;;;;;;;;;;;17.70;66.42;99637.78;2078622;28;20024;-71
2024/01/25 04:48:46;;;;;;;;;;;;;;;17.72;66.48;99641.13;2077575;28;20129;-70
2024/01/25 04:49:47;;;;;;;;;;;;;;;17.76;66.36;99633.56;2078361;28;20426;-70
2024/01/25 04:50:48;;;;;;;;;;;;;;;17.77;66.15;99627.16;2080119;28;19928;-71
2024/01/25 04:51:50;;;;;;;;;;;;;;;17.79;66.14;99631.38;2080926;28;19940;-71
2024/01/25 04:52:52;;;;;;;;;;;;;;;17.82;66.33;99635.56;2076764;28;19933;-71
2024/01/25 04:53:52;;;;;;;;;;;;;;;17.84;66.03;99625.50;2082410;28;19929;-70
2024/01/25 04:54:54;;;;;;;;;;;;;;;17.85;66.20;99627.16;2081520;28;20506;-71
2024/01/25 04:55:54;;;;;;;;;;;;;;;17.88;65.92;99634.88;2081279;28;19951;-70
2024/01/25 04:56:56;;;;;;;;;;;;;;;17.91;66.03;99634.50;2079543;28;19975;-70
2024/01/25 04:57:57;;;;;;;;;;;;;;;17.94;66.05;99633.31;2081487;28;19936;-70
2024/01/25 04:59:00;;;;;;;;;;;;;;;17.95;66.13;99635.84;2081798;28;20354;-70
2024/01/25 05:00:00;;;;;;;;;;;;;;;17.97;65.97;99633.84;2079890;28;19925;-70
2024/01/25 05:01:02;;;;;;;;;;;;;;;18.00;66.23;99632.66;2077588;28;19953;-70
2024/01/25 05:02:03;;;;;;;;;;;;;;;18.02;65.95;99630.59;2082867;28;20415;-70
2024/01/25 05:03:05;;;;;;;;;;;;;;;18.03;65.93;99633.13;2078064;28;20012;-72
2024/01/25 05:04:05;;;;;;;;;;;;;;;18.05;65.82;99636.47;2078461;28;19925;-72
2024/01/25 05:05:07;;;;;;;;;;;;;;;18.07;66.00;99637.13;2078913;28;19960;-71
2024/01/25 05:06:07;;;;;;;;;;;;;;;18.09;65.84;99637.78;2079896;28;19929;-71
2024/01/25 05:07:09;;;;;;;;;;;;;;;18.11;65.48;99634.09;2081067;28;19964;-71
2024/01/25 05:08:10;;;;;;;;;;;;;;;18.12;65.73;99635.78;2080646;28;20382;-71
2024/01/25 05:09:11;;;;;;;;;;;;;;;18.15;65.70;99635.41;2080672;28;20015;-71
2024/01/25 05:10:12;;;;;;;;;;;;;;;18.16;65.69;99634.41;2078851;28;19972;-70
2024/01/25 05:11:13;;;;;;;;;;;;;;;18.17;65.67;99630.72;2077122;28;20399;-70
2024/01/25 05:12:14;;;;;;;;;;;;;;;18.19;65.72;99639.41;2076373;28;19940;-71
2024/01/25 05:13:15;;;;;;;;;;;;;;;18.19;65.74;99636.72;2081213;28;19925;-70
2024/01/25 05:14:18;;;;;;;;;;;;;;;18.20;65.80;99631.19;2075973;28;19926;-71
2024/01/25 05:15:19;;;;;;;;;;;;;;;18.22;65.60;99628.31;2078853;28;19935;-72
2024/01/25 05:16:20;;;;;;;;;;;;;;;18.22;65.51;99633.69;2081070;28;19929;-71
2024/01/25 05:17:22;;;;;;;;;;;;;;;18.23;65.50;99630.00;2080794;28;20019;-72
2024/01/25 05:18:23;;;;;;;;;;;;;;;18.24;65.75;99635.19;2080071;28;19929;-72
2024/01/25 05:19:25;;;;;;;;;;;;;;;18.24;65.56;99632.50;2081939;28;20451;-72
2024/01/25 05:20:31;;;;;;;;;;;;;;;18.26;65.60;99633.16;2079013;28;19932;-71